sensor_id;sensor_type;location;lat;lon;timestamp;pressure;altitude;pressure_sealevel;temperature;humidity
4705;BME280;2366;51.332;6.610;2023-02-14T00:01:46;103358.03;;;9.09;64.22
4705;BME280;2366;51.332;6.610;2023-02-14T00:04:12;103355.47;;;9.04;64.93
4705;BME280;2366;51.332;6.610;2023-02-14T00:06:38;103354.63;;;9.01;64.56
4705;BME280;2366;51.332;6.610;2023-02-14T00:09:05;103347.53;;;9.03;65.12
4705;BME280;2366;51.332;6.610;2023-02-14T00:11:31;103351.03;;;9.07;65.44
4705;BME280;2366;51.332;6.610;2023-02-14T00:13:57;103346.69;;;9.01;65.42
4705;BME280;2366;51.332;6.610;2023-02-14T00:16:42;103345.81;;;8.97;64.95
4705;BME280;2366;51.332;6.610;2023-02-14T00:19:08;103336.16;;;8.96;65.41
4705;BME280;2366;51.332;6.610;2023-02-14T00:21:36;103342.25;;;9.01;65.73
4705;BME280;2366;51.332;6.610;2023-02-14T00:24:04;103340.31;;;9.13;65.50
4705;BME280;2366;51.332;6.610;2023-02-14T00:26:30;103335.03;;;9.13;65.30
4705;BME280;2366;51.332;6.610;2023-02-14T00:28:55;103339.53;;;9.06;65.27
4705;BME280;2366;51.332;6.610;2023-02-14T00:31:21;103335.09;;;9.10;65.69
4705;BME280;2366;51.332;6.610;2023-02-14T00:33:46;103340.31;;;9.13;65.61
4705;BME280;2366;51.332;6.610;2023-02-14T00:36:11;103343.75;;;9.19;65.21
4705;BME280;2366;51.332;6.610;2023-02-14T00:38:37;103334.06;;;9.20;65.40
4705;BME280;2366;51.332;6.610;2023-02-14T00:41:02;103335.03;;;9.14;65.03
4705;BME280;2366;51.332;6.610;2023-02-14T00:43:29;103338.72;;;9.02;64.95
4705;BME280;2366;51.332;6.610;2023-02-14T00:45:54;103335.16;;;9.03;65.46
4705;BME280;2366;51.332;6.610;2023-02-14T00:48:20;103329.03;;;9.00;65.26
4705;BME280;2366;51.332;6.610;2023-02-14T00:50:45;103341.47;;;8.93;65.06
4705;BME280;2366;51.332;6.610;2023-02-14T00:53:11;103337.16;;;8.86;64.97
4705;BME280;2366;51.332;6.610;2023-02-14T00:55:37;103337.28;;;8.77;65.40
4705;BME280;2366;51.332;6.610;2023-02-14T00:58:02;103340.78;;;8.79;65.55
4705;BME280;2366;51.332;6.610;2023-02-14T01:00:27;103339.84;;;8.83;65.83
4705;BME280;2366;51.332;6.610;2023-02-14T01:02:53;103341.59;;;8.82;65.87
4705;BME280;2366;51.332;6.610;2023-02-14T01:05:18;103349.59;;;8.78;65.57
4705;BME280;2366;51.332;6.610;2023-02-14T01:07:44;103346.19;;;8.70;66.06
4705;BME280;2366;51.332;6.610;2023-02-14T01:10:09;103343.50;;;8.74;65.94
4705;BME280;2366;51.332;6.610;2023-02-14T01:12:35;103346.13;;;8.74;66.03
4705;BME280;2366;51.332;6.610;2023-02-14T01:15:00;103351.38;;;8.79;65.72
4705;BME280;2366;51.332;6.610;2023-02-14T01:17:26;103340.00;;;8.72;65.90
4705;BME280;2366;51.332;6.610;2023-02-14T01:19:52;103346.19;;;8.70;66.16
4705;BME280;2366;51.332;6.610;2023-02-14T01:22:17;103348.00;;;8.64;66.34
4705;BME280;2366;51.332;6.610;2023-02-14T01:24:43;103340.84;;;8.73;66.15
4705;BME280;2366;51.332;6.610;2023-02-14T01:27:08;103337.41;;;8.68;65.73
4705;BME280;2366;51.332;6.610;2023-02-14T01:29:34;103341.84;;;8.64;65.79
4705;BME280;2366;51.332;6.610;2023-02-14T01:31:59;103344.47;;;8.66;65.95
4705;BME280;2366;51.332;6.610;2023-02-14T01:34:24;103338.34;;;8.62;65.99
4705;BME280;2366;51.332;6.610;2023-02-14T01:36:50;103346.34;;;8.56;66.14
4705;BME280;2366;51.332;6.610;2023-02-14T01:39:15;103344.59;;;8.53;65.88
4705;BME280;2366;51.332;6.610;2023-02-14T01:41:43;103343.78;;;8.48;66.34
4705;BME280;2366;51.332;6.610;2023-02-14T01:46:44;103335.94;;;8.40;66.44
4705;BME280;2366;51.332;6.610;2023-02-14T01:49:28;103330.72;;;8.33;66.35
4705;BME280;2366;51.332;6.610;2023-02-14T01:51:59;103330.72;;;8.33;66.52
4705;BME280;2366;51.332;6.610;2023-02-14T01:54:28;103329.88;;;8.26;66.12
4705;BME280;2366;51.332;6.610;2023-02-14T01:56:57;103328.19;;;8.22;66.60
4705;BME280;2366;51.332;6.610;2023-02-14T01:59:27;103321.19;;;8.15;66.15
4705;BME280;2366;51.332;6.610;2023-02-14T02:01:54;103323.94;;;8.04;66.74
4705;BME280;2366;51.332;6.610;2023-02-14T02:04:27;103326.66;;;7.96;66.43
4705;BME280;2366;51.332;6.610;2023-02-14T02:07:02;103316.19;;;7.86;66.60
4705;BME280;2366;51.332;6.610;2023-02-14T02:09:35;103313.59;;;7.79;66.80
4705;BME280;2366;51.332;6.610;2023-02-14T02:12:03;103315.38;;;7.77;67.23
4705;BME280;2366;51.332;6.610;2023-02-14T02:14:28;103318.06;;;7.73;67.30
4705;BME280;2366;51.332;6.610;2023-02-14T02:25:04;103310.16;;;7.68;67.84
4705;BME280;2366;51.332;6.610;2023-02-14T02:36:22;103308.34;;;7.75;67.96
4705;BME280;2366;51.332;6.610;2023-02-14T02:39:06;103312.72;;;7.77;67.88
4705;BME280;2366;51.332;6.610;2023-02-14T02:42:03;103310.13;;;7.71;67.72
4705;BME280;2366;51.332;6.610;2023-02-14T02:47:39;103305.72;;;7.76;68.26
4705;BME280;2366;51.332;6.610;2023-02-14T02:55:58;103303.03;;;7.79;67.57
4705;BME280;2366;51.332;6.610;2023-02-14T02:58:58;103293.31;;;7.78;68.28
4705;BME280;2366;51.332;6.610;2023-02-14T03:01:30;103290.72;;;7.77;67.73
4705;BME280;2366;51.332;6.610;2023-02-14T03:03:59;103288.13;;;7.72;68.18
4705;BME280;2366;51.332;6.610;2023-02-14T03:06:46;103291.59;;;7.76;68.26
4705;BME280;2366;51.332;6.610;2023-02-14T03:12:17;103289.88;;;7.75;68.14
4705;BME280;2366;51.332;6.610;2023-02-14T03:14:59;103282.81;;;7.74;67.95
4705;BME280;2366;51.332;6.610;2023-02-14T03:17:36;103295.16;;;7.75;68.29
4705;BME280;2366;51.332;6.610;2023-02-14T03:20:30;103293.38;;;7.77;67.98
4705;BME280;2366;51.332;6.610;2023-02-14T03:23:27;103292.50;;;7.73;67.40
4705;BME280;2366;51.332;6.610;2023-02-14T03:26:13;103296.06;;;7.69;68.01
4705;BME280;2366;51.332;6.610;2023-02-14T03:29:15;103303.16;;;7.64;67.10
4705;BME280;2366;51.332;6.610;2023-02-14T03:32:03;103304.06;;;7.60;67.18
4705;BME280;2366;51.332;6.610;2023-02-14T03:34:47;103300.56;;;7.58;67.46
4705;BME280;2366;51.332;6.610;2023-02-14T03:37:33;103304.97;;;7.59;67.70
4705;BME280;2366;51.332;6.610;2023-02-14T03:40:06;103310.22;;;7.62;67.53
4705;BME280;2366;51.332;6.610;2023-02-14T03:42:38;103308.44;;;7.61;68.23
4705;BME280;2366;51.332;6.610;2023-02-14T03:45:09;103302.28;;;7.62;68.22
4705;BME280;2366;51.332;6.610;2023-02-14T03:47:36;103306.72;;;7.61;68.05
4705;BME280;2366;51.332;6.610;2023-02-14T03:50:16;103308.44;;;7.63;68.20
4705;BME280;2366;51.332;6.610;2023-02-14T03:52:45;103312.00;;;7.58;67.58
4705;BME280;2366;51.332;6.610;2023-02-14T03:55:15;103304.97;;;7.56;67.96
4705;BME280;2366;51.332;6.610;2023-02-14T03:57:50;103307.66;;;7.53;67.68
4705;BME280;2366;51.332;6.610;2023-02-14T04:00:17;103312.94;;;7.53;68.14
4705;BME280;2366;51.332;6.610;2023-02-14T04:02:47;103308.56;;;7.49;68.48
4705;BME280;2366;51.332;6.610;2023-02-14T04:05:23;103311.19;;;7.49;67.87
4705;BME280;2366;51.332;6.610;2023-02-14T04:07:55;103301.56;;;7.41;68.10
4705;BME280;2366;51.332;6.610;2023-02-14T04:10:21;103307.69;;;7.44;67.71
4705;BME280;2366;51.332;6.610;2023-02-14T04:12:48;103310.34;;;7.47;68.09
4705;BME280;2366;51.332;6.610;2023-02-14T04:15:14;103306.81;;;7.45;67.95
4705;BME280;2366;51.332;6.610;2023-02-14T04:17:40;103310.28;;;7.51;68.76
4705;BME280;2366;51.332;6.610;2023-02-14T04:20:24;103305.00;;;7.53;67.96
4705;BME280;2366;51.332;6.610;2023-02-14T04:22:50;103305.88;;;7.50;68.72
4705;BME280;2366;51.332;6.610;2023-02-14T04:25:17;103302.38;;;7.53;68.95
4705;BME280;2366;51.332;6.610;2023-02-14T04:27:42;103304.09;;;7.55;68.63
4705;BME280;2366;51.332;6.610;2023-02-14T04:30:09;103297.97;;;7.55;68.56
4705;BME280;2366;51.332;6.610;2023-02-14T04:32:34;103303.25;;;7.53;67.78
4705;BME280;2366;51.332;6.610;2023-02-14T04:35:00;103305.88;;;7.55;68.54
4705;BME280;2366;51.332;6.610;2023-02-14T04:37:25;103298.81;;;7.57;69.25
4705;BME280;2366;51.332;6.610;2023-02-14T04:39:51;103299.69;;;7.59;68.77
4705;BME280;2366;51.332;6.610;2023-02-14T04:42:16;103289.13;;;7.57;68.88
4705;BME280;2366;51.332;6.610;2023-02-14T04:44:41;103286.50;;;7.56;68.66
4705;BME280;2366;51.332;6.610;2023-02-14T04:47:08;103282.06;;;7.58;68.45
4705;BME280;2366;51.332;6.610;2023-02-14T04:49:34;103282.06;;;7.59;68.65
4705;BME280;2366;51.332;6.610;2023-02-14T04:52:00;103282.94;;;7.60;68.43
4705;BME280;2366;51.332;6.610;2023-02-14T04:54:25;103279.44;;;7.58;68.57
4705;BME280;2366;51.332;6.610;2023-02-14T04:56:51;103273.28;;;7.57;68.97
4705;BME280;2366;51.332;6.610;2023-02-14T04:59:16;103276.84;;;7.55;68.51
4705;BME280;2366;51.332;6.610;2023-02-14T05:01:42;103278.63;;;7.53;68.27
4705;BME280;2366;51.332;6.610;2023-02-14T05:04:07;103274.25;;;7.46;68.53
4705;BME280;2366;51.332;6.610;2023-02-14T05:06:33;103273.41;;;7.40;68.73
4705;BME280;2366;51.332;6.610;2023-02-14T05:08:59;103270.78;;;7.42;69.00
4705;BME280;2366;51.332;6.610;2023-02-14T05:11:26;103268.09;;;7.44;69.30
4705;BME280;2366;51.332;6.610;2023-02-14T05:13:51;103268.09;;;7.47;69.12
4705;BME280;2366;51.332;6.610;2023-02-14T05:16:17;103259.31;;;7.46;68.81
4705;BME280;2366;51.332;6.610;2023-02-14T05:18:42;103262.81;;;7.48;69.29
4705;BME280;2366;51.332;6.610;2023-02-14T05:21:07;103252.22;;;7.51;69.52
4705;BME280;2366;51.332;6.610;2023-02-14T05:23:33;103258.41;;;7.49;69.02
4705;BME280;2366;51.332;6.610;2023-02-14T05:25:59;103259.31;;;7.46;69.32
4705;BME280;2366;51.332;6.610;2023-02-14T05:28:24;103254.00;;;7.48;69.05
4705;BME280;2366;51.332;6.610;2023-02-14T05:30:50;103253.16;;;7.43;68.83
4705;BME280;2366;51.332;6.610;2023-02-14T05:33:16;103254.00;;;7.48;69.02
4705;BME280;2366;51.332;6.610;2023-02-14T05:35:42;103254.88;;;7.47;69.34
4705;BME280;2366;51.332;6.610;2023-02-14T05:38:07;103261.94;;;7.46;68.72
4705;BME280;2366;51.332;6.610;2023-02-14T05:40:33;103254.97;;;7.37;68.87
4705;BME280;2366;51.332;6.610;2023-02-14T05:42:58;103255.88;;;7.33;69.59
4705;BME280;2366;51.332;6.610;2023-02-14T05:45:24;103253.28;;;7.27;68.95
4705;BME280;2366;51.332;6.610;2023-02-14T05:47:49;103252.41;;;7.25;69.50
4705;BME280;2366;51.332;6.610;2023-02-14T05:50:16;103246.22;;;7.28;69.53
4705;BME280;2366;51.332;6.610;2023-02-14T05:52:42;103255.97;;;7.23;69.01
4705;BME280;2366;51.332;6.610;2023-02-14T05:55:08;103247.22;;;7.13;68.75
4705;BME280;2366;51.332;6.610;2023-02-14T05:57:33;103255.16;;;7.11;69.46
4705;BME280;2366;51.332;6.610;2023-02-14T05:59:59;103256.03;;;7.10;69.89
4705;BME280;2366;51.332;6.610;2023-02-14T06:02:24;103259.56;;;7.08;69.30
4705;BME280;2366;51.332;6.610;2023-02-14T06:04:50;103257.81;;;7.10;69.65
4705;BME280;2366;51.332;6.610;2023-02-14T06:07:15;103256.00;;;7.15;69.72
4705;BME280;2366;51.332;6.610;2023-02-14T06:09:40;103255.09;;;7.20;70.07
4705;BME280;2366;51.332;6.610;2023-02-14T06:12:06;103254.25;;;7.14;69.58
4705;BME280;2366;51.332;6.610;2023-02-14T06:14:31;103256.00;;;7.18;69.98
4705;BME280;2366;51.332;6.610;2023-02-14T06:16:57;103260.38;;;7.19;70.25
4705;BME280;2366;51.332;6.610;2023-02-14T06:19:22;103261.25;;;7.23;70.55
4705;BME280;2366;51.332;6.610;2023-02-14T06:21:48;103263.84;;;7.29;70.14
4705;BME280;2366;51.332;6.610;2023-02-14T06:24:13;103262.94;;;7.31;69.61
4705;BME280;2366;51.332;6.610;2023-02-14T06:26:38;103265.59;;;7.25;69.34
4705;BME280;2366;51.332;6.610;2023-02-14T06:29:04;103268.25;;;7.25;70.22
4705;BME280;2366;51.332;6.610;2023-02-14T06:31:29;103271.75;;;7.27;70.07
4705;BME280;2366;51.332;6.610;2023-02-14T06:33:54;103275.22;;;7.34;69.88
4705;BME280;2366;51.332;6.610;2023-02-14T06:36:20;103276.13;;;7.31;69.68
4705;BME280;2366;51.332;6.610;2023-02-14T06:38:47;103279.69;;;7.29;69.31
4705;BME280;2366;51.332;6.610;2023-02-14T06:41:13;103277.00;;;7.33;70.09
4705;BME280;2366;51.332;6.610;2023-02-14T06:43:42;103283.16;;;7.34;69.29
4705;BME280;2366;51.332;6.610;2023-02-14T06:46:07;103282.28;;;7.33;69.44
4705;BME280;2366;51.332;6.610;2023-02-14T06:48:33;103289.28;;;7.36;68.88
4705;BME280;2366;51.332;6.610;2023-02-14T06:50:58;103289.25;;;7.40;69.66
4705;BME280;2366;51.332;6.610;2023-02-14T06:53:23;103292.72;;;7.46;69.40
4705;BME280;2366;51.332;6.610;2023-02-14T06:55:49;103294.53;;;7.40;69.53
4705;BME280;2366;51.332;6.610;2023-02-14T06:58:14;103291.00;;;7.43;69.30
4705;BME280;2366;51.332;6.610;2023-02-14T07:00:40;103295.38;;;7.49;69.05
4705;BME280;2366;51.332;6.610;2023-02-14T07:03:06;103289.19;;;7.50;69.53
4705;BME280;2366;51.332;6.610;2023-02-14T07:05:32;103292.63;;;7.58;69.33
4705;BME280;2366;51.332;6.610;2023-02-14T07:07:57;103290.88;;;7.60;68.96
4705;BME280;2366;51.332;6.610;2023-02-14T07:10:23;103287.31;;;7.61;69.33
4705;BME280;2366;51.332;6.610;2023-02-14T07:12:48;103292.53;;;7.70;69.01
4705;BME280;2366;51.332;6.610;2023-02-14T07:15:14;103294.25;;;7.77;68.76
4705;BME280;2366;51.332;6.610;2023-02-14T07:17:39;103285.34;;;7.85;68.39
4705;BME280;2366;51.332;6.610;2023-02-14T07:20:06;103288.91;;;7.84;67.93
4705;BME280;2366;51.332;6.610;2023-02-14T07:22:32;103290.59;;;7.91;68.24
4705;BME280;2366;51.332;6.610;2023-02-14T07:24:58;103285.63;;;8.45;67.82
4705;BME280;2366;51.332;6.610;2023-02-14T07:27:23;103270.22;;;9.38;65.41
4705;BME280;2366;51.332;6.610;2023-02-14T07:29:49;103275.22;;;10.53;61.91
4705;BME280;2366;51.332;6.610;2023-02-14T07:32:14;103273.66;;;10.86;60.31
4705;BME280;2366;51.332;6.610;2023-02-14T07:34:39;103278.75;;;10.96;59.73
4705;BME280;2366;51.332;6.610;2023-02-14T07:37:05;103280.72;;;10.86;58.13
4705;BME280;2366;51.332;6.610;2023-02-14T07:39:30;103283.94;;;11.00;57.66
4705;BME280;2366;51.332;6.610;2023-02-14T07:41:56;103282.50;;;10.85;57.60
4705;BME280;2366;51.332;6.610;2023-02-14T07:44:21;103275.41;;;11.25;57.39
4705;BME280;2366;51.332;6.610;2023-02-14T07:46:46;103280.63;;;12.32;54.60
4705;BME280;2366;51.332;6.610;2023-02-14T07:49:12;103287.53;;;12.99;52.73
4705;BME280;2366;51.332;6.610;2023-02-14T07:51:37;103294.31;;;13.38;50.55
4705;BME280;2366;51.332;6.610;2023-02-14T07:54:03;103286.59;;;14.33;49.45
4705;BME280;2366;51.332;6.610;2023-02-14T07:56:28;103291.09;;;14.06;47.33
4705;BME280;2366;51.332;6.610;2023-02-14T07:58:54;103294.16;;;14.21;48.35
4705;BME280;2366;51.332;6.610;2023-02-14T08:01:19;103290.78;;;14.88;47.42
4705;BME280;2366;51.332;6.610;2023-02-14T08:03:45;103292.66;;;15.30;45.36
4705;BME280;2366;51.332;6.610;2023-02-14T08:06:14;103291.22;;;14.99;45.46
4705;BME280;2366;51.332;6.610;2023-02-14T08:08:40;103293.84;;;14.53;45.84
4705;BME280;2366;51.332;6.610;2023-02-14T08:11:05;103293.47;;;14.88;46.02
4705;BME280;2366;51.332;6.610;2023-02-14T08:13:30;103298.44;;;15.41;44.61
4705;BME280;2366;51.332;6.610;2023-02-14T08:15:56;103291.72;;;16.35;42.73
4705;BME280;2366;51.332;6.610;2023-02-14T08:18:38;103287.44;;;16.51;42.10
4705;BME280;2366;51.332;6.610;2023-02-14T08:21:05;103282.69;;;16.96;41.61
4705;BME280;2366;51.332;6.610;2023-02-14T08:23:31;103291.63;;;17.50;39.83
4705;BME280;2366;51.332;6.610;2023-02-14T08:25:56;103287.16;;;16.95;40.60
4705;BME280;2366;51.332;6.610;2023-02-14T08:28:22;103287.56;;;16.67;41.12
4705;BME280;2366;51.332;6.610;2023-02-14T08:30:49;103287.31;;;17.82;39.79
4705;BME280;2366;51.332;6.610;2023-02-14T08:33:14;103293.03;;;18.76;37.85
4705;BME280;2366;51.332;6.610;2023-02-14T08:35:40;103288.66;;;18.91;38.21
4705;BME280;2366;51.332;6.610;2023-02-14T08:38:05;103289.22;;;19.44;37.14
4705;BME280;2366;51.332;6.610;2023-02-14T08:40:32;103293.19;;;18.73;37.14
4705;BME280;2366;51.332;6.610;2023-02-14T08:42:57;103285.34;;;18.86;36.62
4705;BME280;2366;51.332;6.610;2023-02-14T08:45:23;103288.13;;;18.35;37.19
4705;BME280;2366;51.332;6.610;2023-02-14T08:47:48;103283.81;;;18.48;36.67
4705;BME280;2366;51.332;6.610;2023-02-14T08:50:16;103285.97;;;18.91;35.86
4705;BME280;2366;51.332;6.610;2023-02-14T08:52:42;103292.19;;;19.23;35.95
4705;BME280;2366;51.332;6.610;2023-02-14T08:55:09;103295.28;;;19.47;35.22
4705;BME280;2366;51.332;6.610;2023-02-14T08:57:34;103290.75;;;19.48;36.24
4705;BME280;2366;51.332;6.610;2023-02-14T09:00:00;103288.34;;;19.27;36.33
4705;BME280;2366;51.332;6.610;2023-02-14T09:02:25;103286.09;;;19.96;35.21
4705;BME280;2366;51.332;6.610;2023-02-14T09:04:50;103283.72;;;21.19;33.67
4705;BME280;2366;51.332;6.610;2023-02-14T09:07:16;103284.03;;;21.27;32.79
4705;BME280;2366;51.332;6.610;2023-02-14T09:09:41;103268.63;;;21.29;32.63
4705;BME280;2366;51.332;6.610;2023-02-14T09:12:08;103272.03;;;20.91;33.36
4705;BME280;2366;51.332;6.610;2023-02-14T09:14:38;103269.63;;;21.14;32.07
4705;BME280;2366;51.332;6.610;2023-02-14T09:17:05;103266.13;;;20.15;33.45
4705;BME280;2366;51.332;6.610;2023-02-14T09:19:35;103263.63;;;20.11;34.33
4705;BME280;2366;51.332;6.610;2023-02-14T09:22:01;103263.94;;;20.21;33.82
4705;BME280;2366;51.332;6.610;2023-02-14T09:24:32;103254.19;;;20.19;33.83
4705;BME280;2366;51.332;6.610;2023-02-14T09:26:58;103251.50;;;20.33;33.87
4705;BME280;2366;51.332;6.610;2023-02-14T09:29:24;103248.03;;;20.45;33.19
4705;BME280;2366;51.332;6.610;2023-02-14T09:31:54;103246.84;;;20.78;33.35
4705;BME280;2366;51.332;6.610;2023-02-14T09:34:20;103244.19;;;21.18;32.62
4705;BME280;2366;51.332;6.610;2023-02-14T09:36:45;103244.94;;;20.80;33.12
4705;BME280;2366;51.332;6.610;2023-02-14T09:39:10;103247.56;;;19.96;33.90
4705;BME280;2366;51.332;6.610;2023-02-14T09:44:38;103241.81;;;15.09;43.47
4705;BME280;2366;51.332;6.610;2023-02-14T09:49:51;103237.59;;;13.34;47.27
4705;BME280;2366;51.332;6.610;2023-02-14T09:52:19;103231.06;;;13.69;47.45
4705;BME280;2366;51.332;6.610;2023-02-14T09:54:50;103244.25;;;15.15;44.83
4705;BME280;2366;51.332;6.610;2023-02-14T09:59:53;103245.53;;;13.62;47.05
4705;BME280;2366;51.332;6.610;2023-02-14T10:02:35;103244.13;;;12.95;49.26
4705;BME280;2366;51.332;6.610;2023-02-14T10:05:09;103238.91;;;12.92;49.95
4705;BME280;2366;51.332;6.610;2023-02-14T10:07:56;103234.84;;;12.81;51.07
4705;BME280;2366;51.332;6.610;2023-02-14T10:10:32;103236.47;;;12.85;50.67
4705;BME280;2366;51.332;6.610;2023-02-14T10:15:44;103237.34;;;13.13;50.57
4705;BME280;2366;51.332;6.610;2023-02-14T10:20:49;103233.66;;;13.18;50.82
4705;BME280;2366;51.332;6.610;2023-02-14T10:26:02;103227.66;;;13.11;50.69
4705;BME280;2366;51.332;6.610;2023-02-14T10:28:48;103223.00;;;13.18;51.07
4705;BME280;2366;51.332;6.610;2023-02-14T10:31:26;103230.69;;;13.27;50.52
4705;BME280;2366;51.332;6.610;2023-02-14T10:34:03;103225.50;;;13.22;50.45
4705;BME280;2366;51.332;6.610;2023-02-14T10:39:31;103229.78;;;13.28;51.27
4705;BME280;2366;51.332;6.610;2023-02-14T10:42:15;103225.13;;;13.08;50.43
4705;BME280;2366;51.332;6.610;2023-02-14T10:45:04;103223.81;;;13.20;50.88
4705;BME280;2366;51.332;6.610;2023-02-14T10:47:49;103217.25;;;13.31;50.68
4705;BME280;2366;51.332;6.610;2023-02-14T10:50:32;103211.78;;;13.36;50.81
4705;BME280;2366;51.332;6.610;2023-02-14T10:53:18;103219.34;;;13.48;51.13
4705;BME280;2366;51.332;6.610;2023-02-14T10:55:55;103210.44;;;13.49;50.37
4705;BME280;2366;51.332;6.610;2023-02-14T10:58:25;103200.59;;;13.51;50.43
4705;BME280;2366;51.332;6.610;2023-02-14T11:00:58;103199.81;;;13.48;50.14
4705;BME280;2366;51.332;6.610;2023-02-14T11:03:26;103202.44;;;13.49;50.58
4705;BME280;2366;51.332;6.610;2023-02-14T11:05:53;103202.81;;;13.64;50.73
4705;BME280;2366;51.332;6.610;2023-02-14T11:08:31;103205.81;;;13.80;49.95
4705;BME280;2366;51.332;6.610;2023-02-14T11:11:03;103196.34;;;13.71;49.83
4705;BME280;2366;51.332;6.610;2023-02-14T11:13:37;103195.63;;;13.66;49.44
4705;BME280;2366;51.332;6.610;2023-02-14T11:16:06;103191.13;;;13.68;49.68
4705;BME280;2366;51.332;6.610;2023-02-14T11:18:34;103198.00;;;13.75;49.85
4705;BME280;2366;51.332;6.610;2023-02-14T11:23:39;103193.47;;;13.77;49.38
4705;BME280;2366;51.332;6.610;2023-02-14T11:26:13;103197.69;;;13.83;49.74
4705;BME280;2366;51.332;6.610;2023-02-14T11:28:54;103187.59;;;13.92;49.96
4705;BME280;2366;51.332;6.610;2023-02-14T11:31:31;103189.66;;;13.84;49.99
4705;BME280;2366;51.332;6.610;2023-02-14T11:33:57;103188.09;;;14.02;49.99
4705;BME280;2366;51.332;6.610;2023-02-14T11:36:24;103180.06;;;14.04;49.50
4705;BME280;2366;51.332;6.610;2023-02-14T11:39:01;103184.44;;;14.05;49.32
4705;BME280;2366;51.332;6.610;2023-02-14T11:41:45;103179.13;;;14.05;49.78
4705;BME280;2366;51.332;6.610;2023-02-14T11:44:16;103171.56;;;14.16;49.77
4705;BME280;2366;51.332;6.610;2023-02-14T11:46:47;103170.34;;;14.25;49.71
4705;BME280;2366;51.332;6.610;2023-02-14T11:49:33;103167.53;;;14.29;49.08
4705;BME280;2366;51.332;6.610;2023-02-14T11:52:08;103167.34;;;14.34;49.08
4705;BME280;2366;51.332;6.610;2023-02-14T11:54:36;103162.81;;;14.36;49.06
4705;BME280;2366;51.332;6.610;2023-02-14T11:57:26;103153.69;;;14.42;48.81
4705;BME280;2366;51.332;6.610;2023-02-14T11:59:54;103151.16;;;14.38;48.87
4705;BME280;2366;51.332;6.610;2023-02-14T12:02:28;103152.88;;;14.39;49.04
4705;BME280;2366;51.332;6.610;2023-02-14T12:05:00;103139.66;;;14.36;48.26
4705;BME280;2366;51.332;6.610;2023-02-14T12:07:35;103140.59;;;14.35;48.34
4705;BME280;2366;51.332;6.610;2023-02-14T12:12:51;103138.50;;;14.44;48.59
4705;BME280;2366;51.332;6.610;2023-02-14T12:15:48;103136.63;;;14.46;47.93
4705;BME280;2366;51.332;6.610;2023-02-14T12:18:35;103127.56;;;14.50;48.21
4705;BME280;2366;51.332;6.610;2023-02-14T12:21:40;103122.03;;;14.54;47.76
4705;BME280;2366;51.332;6.610;2023-02-14T12:26:46;103109.59;;;14.55;48.28
4705;BME280;2366;51.332;6.610;2023-02-14T12:29:46;103107.63;;;14.60;48.29
4705;BME280;2366;51.332;6.610;2023-02-14T12:34:41;103102.97;;;14.65;49.09
4705;BME280;2366;51.332;6.610;2023-02-14T12:37:16;103088.69;;;14.66;48.79
4705;BME280;2366;51.332;6.610;2023-02-14T12:42:59;103080.53;;;14.69;47.51
4705;BME280;2366;51.332;6.610;2023-02-14T12:45:57;103080.28;;;14.75;47.27
4705;BME280;2366;51.332;6.610;2023-02-14T13:07:47;103049.19;;;14.95;47.95
4705;BME280;2366;51.332;6.610;2023-02-14T13:10:22;103045.78;;;14.91;47.83
4705;BME280;2366;51.332;6.610;2023-02-14T13:15:39;103044.78;;;14.94;48.24
4705;BME280;2366;51.332;6.610;2023-02-14T13:21:02;103044.72;;;14.95;47.88
4705;BME280;2366;51.332;6.610;2023-02-14T13:23:35;103036.50;;;15.00;48.21
4705;BME280;2366;51.332;6.610;2023-02-14T13:26:12;103036.28;;;15.05;47.63
4705;BME280;2366;51.332;6.610;2023-02-14T13:28:44;103031.53;;;15.11;47.74
4705;BME280;2366;51.332;6.610;2023-02-14T13:31:12;103026.84;;;15.18;48.28
4705;BME280;2366;51.332;6.610;2023-02-14T13:33:49;103025.41;;;15.09;48.11
4705;BME280;2366;51.332;6.610;2023-02-14T13:36:16;103023.69;;;15.08;47.70
4705;BME280;2366;51.332;6.610;2023-02-14T13:38:51;103021.81;;;15.10;47.91
4705;BME280;2366;51.332;6.610;2023-02-14T13:41:19;103020.06;;;15.09;47.89
4705;BME280;2366;51.332;6.610;2023-02-14T13:44:01;103015.00;;;15.03;48.02
4705;BME280;2366;51.332;6.610;2023-02-14T13:49:02;103014.53;;;15.14;48.25
4705;BME280;2366;51.332;6.610;2023-02-14T13:51:49;103011.94;;;15.12;47.56
4705;BME280;2366;51.332;6.610;2023-02-14T13:54:21;103004.78;;;15.13;47.87
4705;BME280;2366;51.332;6.610;2023-02-14T13:56:47;103008.41;;;15.12;47.70
4705;BME280;2366;51.332;6.610;2023-02-14T13:59:26;102997.22;;;15.02;48.01
4705;BME280;2366;51.332;6.610;2023-02-14T14:01:51;103003.09;;;15.10;47.71
4705;BME280;2366;51.332;6.610;2023-02-14T14:15:09;102995.84;;;15.14;47.17
4705;BME280;2366;51.332;6.610;2023-02-14T14:20:45;102986.81;;;15.16;46.96
4705;BME280;2366;51.332;6.610;2023-02-14T14:23:28;102983.06;;;15.20;47.11
4705;BME280;2366;51.332;6.610;2023-02-14T14:25:55;102981.09;;;15.24;47.12
4705;BME280;2366;51.332;6.610;2023-02-14T14:28:22;102976.16;;;15.35;46.88
4705;BME280;2366;51.332;6.610;2023-02-14T14:30:49;102970.44;;;15.43;46.67
4705;BME280;2366;51.332;6.610;2023-02-14T14:36:06;102962.47;;;15.41;46.43
4705;BME280;2366;51.332;6.610;2023-02-14T14:38:34;102965.38;;;15.37;46.62
4705;BME280;2366;51.332;6.610;2023-02-14T14:41:09;102957.28;;;15.38;46.76
4705;BME280;2366;51.332;6.610;2023-02-14T14:43:37;102960.19;;;15.34;46.78
4705;BME280;2366;51.332;6.610;2023-02-14T14:46:06;102960.31;;;15.31;47.05
4705;BME280;2366;51.332;6.610;2023-02-14T14:48:38;102950.56;;;15.30;46.87
4705;BME280;2366;51.332;6.610;2023-02-14T14:51:06;102948.63;;;15.33;46.74
4705;BME280;2366;51.332;6.610;2023-02-14T14:56:29;102938.25;;;15.46;46.16
4705;BME280;2366;51.332;6.610;2023-02-14T14:58:55;102940.97;;;15.45;46.21
4705;BME280;2366;51.332;6.610;2023-02-14T15:01:35;102931.44;;;15.39;46.06
4705;BME280;2366;51.332;6.610;2023-02-14T15:06:37;102930.63;;;15.37;46.32
4705;BME280;2366;51.332;6.610;2023-02-14T15:09:22;102922.75;;;15.34;46.59
4705;BME280;2366;51.332;6.610;2023-02-14T15:11:48;102920.22;;;15.31;46.35
4705;BME280;2366;51.332;6.610;2023-02-14T15:14:44;102919.34;;;15.30;46.09
4705;BME280;2366;51.332;6.610;2023-02-14T15:17:18;102912.34;;;15.28;46.60
4705;BME280;2366;51.332;6.610;2023-02-14T15:19:47;102910.13;;;15.18;46.94
4705;BME280;2366;51.332;6.610;2023-02-14T15:22:25;102909.44;;;15.13;46.75
4705;BME280;2366;51.332;6.610;2023-02-14T15:24:51;102908.47;;;15.16;46.45
4705;BME280;2366;51.332;6.610;2023-02-14T15:27:20;102900.94;;;15.24;45.99